createdAt,value
2019-04-21T00:01:06.702Z,98428.63
2019-04-21T00:06:25.073Z,98429.07
2019-04-21T00:11:29.817Z,98421.06
2019-04-21T00:16:17.189Z,98421.16
2019-04-21T00:21:26.574Z,98428.17
2019-04-21T00:26:40.215Z,98424.48
2019-04-21T00:31:38.140Z,98423.81
2019-04-21T00:36:40.600Z,98417.00
2019-04-21T00:41:54.690Z,98423.37
2019-04-21T00:46:53.216Z,98414.46
2019-04-21T00:52:42.643Z,98412.75
2019-04-21T00:57:32.387Z,98411.58
2019-04-21T01:02:41.621Z,98403.39
2019-04-21T01:07:39.815Z,98404.52
2019-04-21T01:12:41.834Z,98403.77
2019-04-21T01:17:50.497Z,98393.50
2019-04-21T01:22:28.125Z,98391.77
2019-04-21T01:27:50.735Z,98388.59
2019-04-21T01:32:55.762Z,98383.82
2019-04-21T01:38:00.131Z,98379.17
2019-04-21T01:43:02.833Z,98370.34
2019-04-21T01:48:19.602Z,98370.38
2019-04-21T01:53:38.208Z,98369.13
2019-04-21T01:58:39.819Z,98361.30
2019-04-21T02:08:53.213Z,98350.99
2019-04-21T02:14:03.907Z,98342.55
2019-04-21T02:18:58.870Z,98337.09
2019-04-21T02:24:15.274Z,98335.62
2019-04-21T02:29:17.101Z,98334.41
2019-04-21T02:34:23.532Z,98333.08
2019-04-21T02:44:37.439Z,98335.23
2019-04-21T02:54:55.179Z,98332.55
2019-04-21T03:00:00.135Z,98327.39
2019-04-21T03:05:17.757Z,98328.41
2019-04-21T03:10:10.761Z,98327.28
2019-04-21T03:25:36.908Z,98315.33
2019-04-21T03:30:55.926Z,98322.09
2019-04-21T03:40:32.917Z,98315.26
2019-04-21T03:45:44.355Z,98320.48
2019-04-21T03:50:42.801Z,98319.79
2019-04-21T04:01:00.459Z,98318.98
2019-04-21T04:06:08.032Z,98322.87
2019-04-21T04:11:12.766Z,98326.86
2019-04-21T04:26:13.348Z,98328.38
2019-04-21T04:36:33.860Z,98328.19
2019-04-21T04:41:35.028Z,98331.85
2019-04-21T04:46:35.378Z,98330.44
2019-04-21T04:51:43.858Z,98330.70
2019-04-21T04:56:40.824Z,98318.70
2019-04-21T05:01:51.481Z,98319.79
2019-04-21T05:11:50.843Z,98318.98
2019-04-21T05:16:55.511Z,98316.86
2019-04-21T05:21:59.960Z,98320.49
2019-04-21T05:26:49.330Z,98328.95
2019-04-21T05:32:04.970Z,98331.41
2019-04-21T05:37:14.146Z,98329.95
2019-04-21T05:42:04.456Z,98325.55
2019-04-21T05:52:22.570Z,98327.30
2019-04-21T05:57:35.992Z,98321.16
2019-04-21T06:02:36.916Z,98322.88
2019-04-21T06:07:39.460Z,98319.86
2019-04-21T06:12:50.376Z,98326.91
2019-04-21T06:17:49.310Z,98333.88
2019-04-21T06:22:56.641Z,98329.89
2019-04-21T06:28:00.104Z,98331.96
2019-04-21T06:33:20.464Z,98326.51
2019-04-21T06:38:03.644Z,98322.61
2019-04-21T06:43:18.418Z,98319.81
2019-04-21T06:48:12.238Z,98327.84
2019-04-21T06:53:20.692Z,98327.06
2019-04-21T06:58:18.374Z,98321.34
2019-04-21T07:03:34.739Z,98326.63
2019-04-21T07:08:35.298Z,98328.14
2019-04-21T07:13:34.547Z,98329.52
2019-04-21T07:18:47.436Z,98328.77
2019-04-21T07:23:47.281Z,98324.69
2019-04-21T07:28:49.887Z,98331.02
2019-04-21T07:33:57.599Z,98334.52
2019-04-21T07:38:50.386Z,98332.39
2019-04-21T07:43:57.278Z,98333.55
2019-04-21T07:49:07.924Z,98333.41
2019-04-21T07:54:17.267Z,98330.66
2019-04-21T07:59:23.953Z,98329.97
2019-04-21T08:04:38.010Z,98333.39
2019-04-21T08:09:29.462Z,98330.47
2019-04-21T08:14:30.002Z,98336.56
2019-04-21T08:19:31.044Z,98338.92
2019-04-21T08:24:35.225Z,98347.13
2019-04-21T08:34:55.185Z,98334.08
2019-04-21T08:39:58.090Z,98331.75
2019-04-21T08:44:52.657Z,98332.66
2019-04-21T08:49:54.107Z,98332.82
2019-04-21T08:55:22.348Z,98338.48
2019-04-21T09:00:45.511Z,98335.46
2019-04-21T09:05:45.560Z,98334.76
2019-04-21T09:10:48.536Z,98334.13
2019-04-21T09:15:47.887Z,98332.16
2019-04-21T09:20:58.458Z,98329.58
2019-04-21T09:25:57.425Z,98327.33
2019-04-21T09:30:50.824Z,98324.87
2019-04-21T09:35:58.810Z,98319.20
2019-04-21T09:40:55.859Z,98315.73
2019-04-21T09:45:56.770Z,98311.73
2019-04-21T09:50:59.628Z,98310.69
2019-04-21T09:56:05.069Z,98306.34
2019-04-21T10:01:17.499Z,98292.67
2019-04-21T10:06:11.169Z,98288.28
2019-04-21T10:11:14.152Z,98290.57
2019-04-21T10:16:26.741Z,98281.13
2019-04-21T10:21:29.409Z,98276.38
2019-04-21T10:26:31.733Z,98272.55
2019-04-21T10:31:34.550Z,98261.63
2019-04-21T10:36:37.204Z,98262.16
2019-04-21T10:41:39.327Z,98250.19
2019-04-21T10:46:42.519Z,98251.93
2019-04-21T10:51:44.355Z,98246.23
2019-04-21T10:56:47.366Z,98230.21
2019-04-21T11:01:50.457Z,98230.93
2019-04-21T11:06:52.795Z,98223.63
2019-04-21T11:11:55.898Z,98212.97
2019-04-21T11:16:58.561Z,98206.34
2019-04-21T11:22:01.036Z,98207.97
2019-04-21T11:27:04.534Z,98211.63
2019-04-21T11:32:07.215Z,98203.94
2019-04-21T11:37:12.325Z,98211.11
2019-04-21T11:42:17.513Z,98195.91
2019-04-21T11:47:22.634Z,98189.03
2019-04-21T11:52:25.041Z,98186.87
2019-04-21T11:57:30.740Z,98175.20
2019-04-21T12:02:30.990Z,98172.73
2019-04-21T12:07:35.308Z,98163.09
2019-04-21T12:12:43.352Z,98165.11
2019-04-21T12:17:47.827Z,98155.87
2019-04-21T12:22:50.068Z,98142.30
2019-04-21T12:27:52.143Z,98140.63
2019-04-21T12:33:02.247Z,98133.53
2019-04-21T12:38:04.753Z,98131.36
2019-04-21T12:43:06.687Z,98124.66
2019-04-21T12:48:08.522Z,98119.80
2019-04-21T12:53:12.590Z,98118.20
2019-04-21T12:58:15.185Z,98112.34
2019-04-21T13:03:17.420Z,98103.49
2019-04-21T13:08:19.754Z,98101.16
2019-04-21T13:13:22.096Z,98094.81
2019-04-21T13:18:23.850Z,98078.58
2019-04-21T13:23:27.112Z,98081.36
2019-04-21T13:28:28.809Z,98071.82
2019-04-21T13:33:31.240Z,98070.43
2019-04-21T13:38:40.531Z,98062.52
2019-04-21T13:43:39.086Z,98059.73
2019-04-21T13:48:42.372Z,98051.73
2019-04-21T13:53:44.226Z,98045.55
2019-04-21T13:58:46.292Z,98036.30
2019-04-21T14:03:49.082Z,98026.22
2019-04-21T14:08:52.545Z,98019.73
2019-04-21T14:13:54.529Z,98012.42
2019-04-21T14:18:57.179Z,98016.40
2019-04-21T14:23:59.526Z,98006.63
2019-04-21T14:29:01.652Z,98003.20
2019-04-21T14:34:03.948Z,97993.59
2019-04-21T14:39:10.411Z,97983.41
2019-04-21T14:44:13.204Z,97975.91
2019-04-21T14:49:23.643Z,97974.87
2019-04-21T14:54:31.438Z,97970.23
2019-04-21T14:59:33.368Z,97960.13
2019-04-21T15:04:35.687Z,97963.55
2019-04-21T15:09:39.653Z,97957.17
2019-04-21T15:14:42.232Z,97948.02
2019-04-21T15:19:50.860Z,97951.71
2019-04-21T15:24:49.898Z,97943.61
2019-04-21T15:29:53.006Z,97934.59
2019-04-21T15:34:56.048Z,97936.59
2019-04-21T15:39:58.540Z,97935.70
2019-04-21T15:45:04.100Z,97929.45
2019-04-21T15:50:11.921Z,97926.52
2019-04-21T15:55:16.737Z,97921.91
2019-04-21T16:00:38.452Z,97916.80
2019-04-21T16:05:40.622Z,97913.66
2019-04-21T16:10:52.644Z,97911.83
2019-04-21T16:15:50.556Z,97907.59
2019-04-21T16:20:53.692Z,97903.84
2019-04-21T16:25:56.920Z,97892.22
2019-04-21T16:30:58.787Z,97885.11
2019-04-21T16:36:01.981Z,97880.42
2019-04-21T16:41:07.023Z,97880.18
2019-04-21T16:46:08.861Z,97878.22
2019-04-21T16:51:10.751Z,97877.64
2019-04-21T16:56:17.220Z,97874.67
2019-04-21T17:01:29.169Z,97874.54
2019-04-21T17:06:31.183Z,97866.66
2019-04-21T17:11:37.240Z,97860.78
2019-04-21T17:17:03.241Z,97861.97
2019-04-21T17:21:41.662Z,97867.34
2019-04-21T17:26:44.681Z,97862.68
2019-04-21T17:31:47.753Z,97862.81
2019-04-21T17:36:50.947Z,97860.58
2019-04-21T17:42:05.307Z,97858.95
2019-04-21T17:47:02.037Z,97857.68
2019-04-21T17:52:16.273Z,97851.03
2019-04-21T17:57:36.692Z,97854.71
2019-04-21T18:02:41.707Z,97848.84
2019-04-21T18:07:42.146Z,97851.44
2019-04-21T18:12:39.808Z,97846.72
2019-04-21T18:17:32.498Z,97847.11
2019-04-21T18:22:47.915Z,97851.49
2019-04-21T18:27:52.415Z,97845.50
2019-04-21T18:32:57.035Z,97847.19
2019-04-21T18:38:08.035Z,97842.54
2019-04-21T18:43:45.387Z,97835.00
2019-04-21T18:48:24.575Z,97835.83
2019-04-21T18:53:44.815Z,97835.27
2019-04-21T18:58:32.692Z,97834.34
2019-04-21T19:03:41.042Z,97834.00
2019-04-21T19:08:59.952Z,97833.20
2019-04-21T19:14:20.955Z,97834.47
2019-04-21T19:24:28.173Z,97826.12
2019-04-21T19:29:24.037Z,97826.52
2019-04-21T19:34:16.227Z,97826.63
2019-04-21T19:39:23.299Z,97822.66
2019-04-21T19:44:34.073Z,97823.20
2019-04-21T19:49:43.689Z,97824.09
2019-04-21T19:54:30.286Z,97830.98
2019-04-21T19:59:34.628Z,97817.39
2019-04-21T20:04:38.516Z,97820.25
2019-04-21T20:09:50.808Z,97817.17
2019-04-21T20:14:59.604Z,97803.34
2019-04-21T20:19:42.348Z,97794.16
2019-04-21T20:24:49.904Z,97795.17
2019-04-21T20:30:08.878Z,97802.09
2019-04-21T20:35:35.203Z,97801.00
2019-04-21T20:40:02.161Z,97799.05
2019-04-21T20:45:31.935Z,97796.05
2019-04-21T20:50:22.160Z,97795.70
2019-04-21T20:55:21.702Z,97793.66
2019-04-21T21:00:31.800Z,97792.91
2019-04-21T21:05:31.656Z,97784.20
2019-04-21T21:10:38.838Z,97785.77
2019-04-21T21:15:51.348Z,97775.67
2019-04-21T21:20:49.779Z,97771.84
2019-04-21T21:25:51.146Z,97776.86
2019-04-21T21:30:55.845Z,97773.50
2019-04-21T21:36:03.169Z,97765.23
2019-04-21T21:40:57.223Z,97763.36
2019-04-21T21:45:53.581Z,97759.44
2019-04-21T21:51:04.428Z,97751.59
2019-04-21T21:55:56.448Z,97743.11
2019-04-21T22:01:02.662Z,97741.14
2019-04-21T22:06:08.456Z,97739.10
2019-04-21T22:11:07.245Z,97735.25
2019-04-21T22:16:14.439Z,97730.47
2019-04-21T22:21:34.668Z,97725.16
2019-04-21T22:26:18.868Z,97720.70
2019-04-21T22:31:25.296Z,97708.72
2019-04-21T22:36:35.509Z,97705.42
2019-04-21T22:41:34.402Z,97702.55
2019-04-21T22:46:32.687Z,97695.68
2019-04-21T22:51:38.351Z,97697.30
2019-04-21T22:56:49.488Z,97695.46
2019-04-21T23:01:47.446Z,97685.33
2019-04-21T23:06:48.830Z,97677.27
2019-04-21T23:11:52.962Z,97678.46
2019-04-21T23:17:04.432Z,97673.64
2019-04-21T23:22:16.147Z,97673.91
2019-04-21T23:27:15.573Z,97667.25
2019-04-21T23:32:19.923Z,97666.64
2019-04-21T23:37:16.302Z,97659.23
2019-04-21T23:42:22.543Z,97652.22
2019-04-21T23:47:29.235Z,97641.71
2019-04-21T23:52:21.934Z,97640.38
2019-04-21T23:57:31.461Z,97637.03
